createdAt,value
2024-05-09T00:10:22.618Z,41.76
2024-05-09T00:25:39.573Z,41.84
2024-05-09T00:41:04.497Z,41.85
2024-05-09T00:56:29.623Z,41.94
2024-05-09T01:11:54.755Z,41.91
2024-05-09T01:27:19.439Z,41.95
2024-05-09T01:42:44.466Z,42.04
2024-05-09T01:58:09.914Z,42.14
2024-05-09T02:13:34.499Z,42.26
2024-05-09T02:28:59.453Z,42.34
2024-05-09T02:44:24.524Z,42.31
2024-05-09T02:59:49.402Z,42.37
2024-05-09T03:15:14.442Z,42.36
2024-05-09T03:30:42.429Z,42.43
2024-05-09T03:46:04.397Z,42.50
2024-05-09T04:01:29.469Z,42.59
2024-05-09T04:16:54.423Z,42.60
2024-05-09T04:32:19.474Z,42.67
2024-05-09T04:47:44.430Z,42.71
2024-05-09T05:03:10.780Z,42.83
2024-05-09T05:18:34.352Z,42.86
2024-05-09T05:33:59.404Z,42.84
2024-05-09T05:49:24.463Z,42.69
2024-05-09T06:04:49.472Z,42.77
2024-05-09T06:20:20.610Z,42.40
2024-05-09T06:35:39.622Z,42.40
2024-05-09T06:51:04.317Z,42.80
2024-05-09T07:06:29.242Z,42.27
2024-05-09T07:21:54.205Z,41.45
2024-05-09T07:37:19.484Z,40.74
2024-05-09T07:53:34.386Z,40.28
2024-05-09T08:08:09.236Z,43.29
2024-05-09T08:23:35.197Z,43.98
2024-05-09T08:39:00.280Z,43.52
2024-05-09T08:54:25.236Z,43.70
2024-05-09T09:09:50.191Z,43.83
2024-05-09T09:25:15.401Z,43.49
2024-05-09T09:40:46.519Z,42.53
2024-05-09T09:56:06.209Z,41.06
2024-05-09T10:11:32.866Z,42.00
2024-05-09T10:26:56.154Z,42.55
2024-05-09T10:42:21.236Z,42.79
2024-05-09T10:57:46.244Z,43.54
2024-05-09T11:13:11.209Z,43.08
2024-05-09T11:28:36.450Z,45.78
2024-05-09T11:44:01.100Z,43.82
2024-05-09T11:59:26.138Z,43.27
2024-05-09T12:14:51.107Z,43.72
2024-05-09T12:30:25.173Z,44.44
2024-05-09T12:45:42.108Z,43.08
2024-05-09T13:01:07.600Z,43.04
2024-05-09T13:16:32.288Z,42.88
2024-05-09T13:31:57.073Z,43.11
2024-05-09T13:47:22.127Z,43.35
2024-05-09T14:02:47.051Z,43.17
2024-05-09T14:18:14.335Z,43.41
2024-05-09T14:33:39.204Z,42.75
2024-05-09T14:49:04.103Z,42.74
2024-05-09T15:04:29.163Z,42.61
2024-05-09T15:19:54.043Z,42.58
2024-05-09T15:35:19.015Z,41.97
2024-05-09T15:50:44.405Z,41.95
2024-05-09T16:06:09.964Z,41.98
2024-05-09T16:21:35.108Z,42.05
2024-05-09T16:37:00.145Z,42.78
2024-05-09T16:52:24.999Z,42.21
2024-05-09T17:07:50.909Z,41.96
2024-05-09T17:23:17.412Z,42.84
2024-05-09T17:38:41.996Z,43.66
2024-05-09T17:54:06.963Z,43.68
2024-05-09T18:09:31.945Z,43.70
2024-05-09T18:24:56.957Z,43.54
2024-05-09T18:55:46.927Z,43.52
2024-05-09T19:11:11.973Z,42.82
2024-05-09T19:26:36.958Z,42.96
2024-05-09T19:42:01.842Z,42.90
2024-05-09T19:57:26.962Z,42.73
2024-05-09T20:12:51.907Z,42.63
2024-05-09T20:28:17.016Z,43.18
2024-05-09T20:43:41.992Z,43.66
2024-05-09T20:59:06.909Z,44.31
2024-05-09T21:14:31.860Z,44.30
2024-05-09T21:29:56.839Z,44.47
2024-05-09T21:46:02.724Z,45.13
2024-05-09T22:01:28.013Z,44.68
2024-05-09T22:16:53.862Z,44.88
2024-05-09T22:32:18.912Z,44.95
2024-05-09T22:47:44.898Z,44.79
2024-05-09T23:03:09.885Z,44.69
2024-05-09T23:18:34.961Z,44.09
2024-05-09T23:33:59.975Z,43.96
2024-05-09T23:49:24.932Z,43.92
